Latest Weather Observations for Parafield

IDS60901

Issued at 3:01 pm CDT Wednesday 10 February 2016 (issued every 10 minutes, with the page automatically refreshed every 10 minutes)

About weather observations | Map of Adelaide area stations | Latest observations for Adelaide area | Other Formats
Station Details ID: 023013 Name: PARAFIELD AIRPORT Lat: -34.80 Lon: 138.63 Height: 9.5 m
Data from the previous 72 hours. | See also: Recent months at Parafield
Date/Time
CDT
Tmp

°C
App
Tmp
°C
Dew
Point
°C
Rel
Hum
%
Delta-T

°C
Wind Press
QNH
hPa
Press
MSL
hPa
Rain
since
9 am
mm
Dir
 
Spd
km/h
Gust
km/h
Spd
kts
Gust
kts
10/03:00pm 34.2 30.3 10.7 24 13.7 WSW 22 30 12 16 1011.7 1011.7 0.0
10/02:30pm 33.5 29.8 10.2 24 13.4 WSW 20 28 11 15 1012.1 1012.1 0.0
10/02:00pm 33.6 30.0 8.3 21 14.2 SW 17 28 9 15 1012.4 1012.4 0.0
10/01:30pm 32.7 29.1 6.8 20 14.1 WSW 15 24 8 13 1012.9 1012.9 0.0
10/01:00pm 32.7 30.8 6.8 20 14.1 ESE 6 13 3 7 1013.1 1013.1 0.0
10/12:30pm 31.7 29.1 6.0 20 13.7 S 9 17 5 9 1013.6 1013.6 0.0
10/12:00pm 31.3 28.4 6.4 21 13.4 SSE 11 20 6 11 1014.0 1014.0 0.0
10/11:30am 30.7 27.1 6.6 22 12.9 SSW 15 22 8 12 1014.5 1014.5 0.0
10/11:00am 30.4 26.2 5.6 21 13.1 SW 17 22 9 12 1014.6 1014.6 0.0
10/10:30am 28.4 24.9 5.3 23 12.0 SW 13 17 7 9 1014.8 1014.8 0.0
10/10:00am 26.4 22.8 6.9 29 10.3 WSW 15 20 8 11 1014.8 1014.8 0.0
10/09:30am 26.1 24.0 5.7 27 10.5 SW 6 9 3 5 1014.8 1014.8 0.0
10/09:00am 24.8 23.3 5.1 28 9.9 SSE 2 7 1 4 1014.8 1014.8 0.0
10/08:30am 22.4 20.4 6.2 35 8.2 W 6 6 3 3 1014.9 1014.9 0.0
10/08:00am 19.8 19.2 7.5 45 6.3 CALM 0 0 0 0 1014.7 1014.7 0.0
10/07:30am 18.3 17.1 9.4 56 4.7 E 6 6 3 3 1014.5 1014.5 0.0
10/07:00am 16.3 14.4 6.7 53 4.7 ENE 6 7 3 4 1014.4 1014.4 0.0
10/06:30am 16.6 14.6 7.3 54 4.6 NE 7 11 4 6 1013.9 1013.9 0.0
10/06:00am 16.9 15.3 7.8 55 4.6 NE 6 7 3 4 1013.9 1013.9 0.0
10/05:30am 17.7 16.7 7.2 50 5.3 NNE 2 7 1 4 1013.7 1013.7 0.0
10/05:00am 17.3 16.7 7.4 52 5.0 CALM 0 0 0 0 1013.6 1013.6 0.0
10/04:30am 18.7 16.4 5.5 42 6.4 S 7 9 4 5 1013.5 1013.5 0.0
10/04:00am 18.4 15.9 6.6 46 5.9 SSW 9 11 5 6 1013.7 1013.7 0.0
10/03:30am 18.7 15.7 6.2 44 6.2 SSW 11 15 6 8 1013.7 1013.7 0.0
10/03:00am 20.4 19.6 6.4 40 7.0 CALM 0 0 0 0 1013.5 1013.5 0.0
10/02:30am 21.3 18.5 5.2 35 8.0 ESE 9 13 5 7 1013.7 1013.7 0.0
10/02:00am 21.3 18.7 4.0 32 8.4 E 7 15 4 8 1013.8 1013.8 0.0
10/01:30am 22.0 19.4 3.2 29 9.0 ESE 6 11 3 6 1014.1 1014.1 0.0
10/01:00am 21.9 18.9 2.1 27 9.3 E 7 13 4 7 1014.5 1014.5 0.0
10/12:30am 22.9 19.3 2.9 27 9.6 ESE 11 19 6 10 1014.7 1014.7 0.0
10/12:00am 22.9 19.9 3.9 29 9.3 ESE 9 20 5 11 1014.7 1014.7 0.0
 
Date/Time
CDT
Tmp

°C
App
Tmp
°C
Dew
Point
°C
Rel
Hum
%
Delta-T

°C
Wind Press
QNH
hPa
Press
MSL
hPa
Rain
since
9 am
mm
Dir
 
Spd
km/h
Gust
km/h
Spd
kts
Gust
kts
09/11:30pm 23.7 19.9 4.1 28 9.6 ESE 13 20 7 11 1014.7 1014.7 0.0
09/11:00pm 24.1 19.7 4.5 28 9.7 ESE 17 22 9 12 1014.8 1014.8 0.0
09/10:30pm 24.5 20.1 6.7 32 9.2 ESE 19 26 10 14 1014.7 1014.7 0.0
09/10:00pm 25.5 21.5 6.7 30 9.8 SE 17 26 9 14 1014.7 1014.7 0.0
09/09:30pm 26.1 21.5 6.7 29 10.2 ESE 20 30 11 16 1014.5 1014.5 0.0
09/09:00pm 26.6 22.4 7.6 30 10.1 ESE 19 24 10 13 1014.4 1014.4 0.0
09/08:30pm 27.4 23.6 9.7 33 9.8 ESE 20 26 11 14 1014.4 1014.4 0.0
09/08:00pm 28.6 25.2 12.5 37 9.4 SE 22 30 12 16 1014.3 1014.3 0.0
09/07:30pm 30.8 27.5 12.7 33 10.7 ESE 22 28 12 15 1014.0 1014.0 0.0
09/07:00pm 32.9 31.5 13.5 30 11.7 SW 13 17 7 9 1014.0 1014.0 0.0
09/06:30pm 32.8 30.7 12.4 29 12.1 SSW 15 20 8 11 1013.9 1013.9 0.0
09/06:00pm 33.2 30.7 12.2 28 12.5 SSW 17 22 9 12 1013.8 1013.8 0.0
09/05:30pm 33.4 30.2 11.9 27 12.7 SW 20 28 11 15 1014.0 1014.0 0.0
09/05:00pm 33.9 29.4 8.5 21 14.3 SW 22 30 12 16 1014.3 1014.3 0.0
09/04:30pm 34.2 30.1 8.8 21 14.4 SSW 20 26 11 14 1014.6 1014.6 0.0
09/04:00pm 33.3 29.5 11.2 26 12.9 SW 22 28 12 15 1014.9 1014.9 0.0
09/03:30pm 34.6 30.6 11.7 25 13.6 SSW 24 32 13 17 1015.2 1015.2 0.0
09/03:00pm 33.7 30.6 12.1 27 12.8 SW 20 26 11 14 1015.3 1015.3 0.0
09/02:30pm 33.6 31.2 12.6 28 12.5 SW 17 24 9 13 1015.7 1015.7 0.0
09/02:00pm 33.1 29.8 12.7 29 12.2 WSW 22 28 12 15 1016.1 1016.1 0.0
09/01:30pm 34.5 32.4 8.3 20 14.7 SSE 9 15 5 8 1016.4 1016.4 0.0
09/01:00pm 32.8 30.7 8.3 22 13.7 NNW 9 13 5 7 1016.8 1016.8 0.0
09/12:30pm 32.5 30.9 8.7 23 13.3 WNW 7 13 4 7 1017.2 1017.2 0.0
09/12:00pm 31.9 30.2 11.1 28 12.1 NE 11 20 6 11 1017.7 1017.7 0.0
09/11:30am 30.3 28.9 10.8 30 11.2 E 9 19 5 10 1018.1 1018.1 0.0
09/11:00am 28.8 27.5 11.4 34 10.0 NE 9 15 5 8 1018.6 1018.6 0.0
09/10:30am 28.0 26.7 11.1 35 9.6 NE 9 15 5 8 1018.9 1018.9 0.0
09/10:00am 26.1 25.3 11.1 39 8.5 SE 6 11 3 6 1019.0 1019.0 0.0
09/09:30am 24.9 24.0 10.8 41 7.9 ESE 6 7 3 4 1019.2 1019.2 0.0
09/09:00am 23.2 22.7 10.6 45 6.9 S 4 7 2 4 1019.4 1019.4 0.0
09/08:30am 22.2 21.7 10.7 48 6.3 SSE 4 7 2 4 1019.3 1019.3 0.0
09/08:00am 20.4 18.7 11.1 55 5.1 SSE 11 15 6 8 1019.2 1019.2 0.0
09/07:30am 17.9 17.7 11.9 68 3.3 S 4 7 2 4 1019.2 1019.2 0.0
09/07:00am 16.9 15.5 11.0 68 3.2 SE 9 11 5 6 1018.9 1018.9 0.0
09/06:30am 16.8 15.4 10.9 68 3.2 SE 9 13 5 7 1018.8 1018.8 0.0
09/06:00am 16.6 16.8 10.7 68 3.1 CALM 0 0 0 0 1018.6 1018.6 0.0
09/05:30am 17.1 16.3 10.9 67 3.3 SSW 6 9 3 5 1018.3 1018.3 0.0
09/05:00am 17.5 16.2 11.1 66 3.5 S 9 13 5 7 1018.4 1018.4 0.0
09/04:30am 17.9 15.9 11.5 66 3.5 SSE 13 15 7 8 1018.5 1018.5 0.0
09/04:00am 18.2 17.9 11.5 65 3.7 SSE 4 11 2 6 1018.6 1018.6 0.0
09/03:30am 18.2 15.9 11.7 66 3.6 SSE 15 19 8 10 1018.6 1018.6 0.0
09/03:00am 19.1 15.5 11.9 63 4.0 SE 22 28 12 15 1018.7 1018.7 0.0
09/02:30am 19.2 16.1 12.2 64 3.9 SSE 20 26 11 14 1018.9 1018.9 0.0
09/02:00am 19.9 16.0 12.2 61 4.3 SE 24 32 13 17 1019.1 1019.1 0.0
09/01:30am 19.8 15.8 11.8 60 4.4 SE 24 32 13 17 1019.3 1019.3 0.0
09/01:00am 20.1 16.4 11.6 58 4.7 SSE 22 28 12 15 1019.5 1019.5 0.0
09/12:30am 19.9 16.8 11.7 59 4.5 SE 19 30 10 16 1019.8 1019.8 0.0
09/12:00am 19.6 15.7 12.1 62 4.2 SE 24 35 13 19 1020.0 1020.0 0.0
 
Date/Time
CDT
Tmp

°C
App
Tmp
°C
Dew
Point
°C
Rel
Hum
%
Delta-T

°C
Wind Press
QNH
hPa
Press
MSL
hPa
Rain
since
9 am
mm
Dir
 
Spd
km/h
Gust
km/h
Spd
kts
Gust
kts
08/11:30pm 19.9 16.0 12.2 61 4.3 SE 24 33 13 18 1020.0 1020.0 0.0
08/11:00pm 20.0 16.4 12.0 60 4.5 SSE 22 30 12 16 1020.1 1020.1 0.0
08/10:30pm 20.1 16.8 11.6 58 4.7 SSE 20 28 11 15 1020.1 1020.1 0.0
08/10:00pm 20.7 16.6 11.3 55 5.2 SSE 24 32 13 17 1019.9 1019.9 0.0
08/09:30pm 20.9 17.7 11.3 54 5.3 SSE 19 28 10 15 1019.6 1019.6 0.0
08/09:00pm 21.3 18.1 11.3 53 5.5 SSE 19 28 10 15 1019.4 1019.4 0.0
08/08:30pm 21.7 17.6 11.4 52 5.7 SSE 24 35 13 19 1019.1 1019.1 0.0
08/08:00pm 22.7 18.1 9.8 44 7.0 SE 24 41 13 22 1018.9 1018.9 0.0
08/07:30pm 24.0 18.5 9.2 39 8.0 SE 28 35 15 19 1018.7 1018.7 0.0
08/07:00pm 25.1 19.8 9.8 38 8.4 SE 28 35 15 19 1018.5 1018.5 0.0
08/06:30pm 26.3 21.8 10.0 36 9.0 ESE 24 33 13 18 1018.4 1018.4 0.0
08/06:00pm 27.7 23.1 9.5 32 10.1 SE 24 32 13 17 1018.5 1018.5 0.0
08/05:30pm 29.1 24.8 10.7 32 10.5 SE 24 32 13 17 1018.4 1018.4 0.0
08/05:00pm 29.8 25.3 9.9 29 11.2 SSE 24 33 13 18 1018.4 1018.4 0.0
08/04:30pm 29.8 25.5 10.9 31 10.8 ESE 24 32 13 17 1018.5 1018.5 0.0
08/04:00pm 30.6 26.8 11.1 30 11.3 SE 22 28 12 15 1018.7 1018.7 0.0
08/03:30pm 30.4 27.0 10.4 29 11.4 ESE 19 26 10 14 1018.9 1018.9 0.0
08/03:00pm 30.5 28.0 11.0 30 11.2 SE 15 24 8 13 1019.2 1019.2 0.0
08/02:30pm 29.9 27.9 11.4 32 10.7 SE 13 24 7 13 1019.5 1019.5 0.0
08/02:00pm 29.7 27.9 10.8 31 10.8 SE 11 20 6 11 1019.9 1019.9 0.0
08/01:30pm 29.0 27.3 11.1 33 10.2 S 11 19 6 10 1020.1 1020.1 0.0
08/01:00pm 28.0 25.4 10.7 34 9.8 SE 15 24 8 13 1020.3 1020.3 0.0
08/12:30pm 27.7 25.0 11.7 37 9.2 SSE 17 24 9 13 1020.7 1020.7 0.0
08/12:00pm 26.2 24.3 11.9 41 8.2 SE 13 22 7 12 1021.1 1021.1 0.0
08/11:30am 25.7 24.2 11.8 42 7.9 SE 11 20 6 11 1021.3 1021.3 0.0
08/11:00am 24.5 23.3 12.8 48 6.8 SSE 11 15 6 8 1021.7 1021.6 0.0
08/10:30am 23.9 22.6 12.5 49 6.5 SE 11 17 6 9 1021.8 1021.7 0.0
08/10:00am 22.4 21.3 12.1 52 5.8 SE 9 17 5 9 1022.0 1021.9 0.0
08/09:30am 21.4 20.1 12.5 57 5.0 S 11 19 6 10 1022.1 1022.0 0.0
08/09:00am 20.1 18.7 12.3 61 4.4 SSW 11 17 6 9 1022.1 1022.0 0.0
08/08:30am 19.4 17.3 12.4 64 3.9 S 15 20 8 11 1022.0 1021.9 0.0
08/08:00am 18.5 16.8 12.3 67 3.4 SSE 13 17 7 9 1021.7 1021.6 0.0
08/07:30am 16.9 15.4 12.0 73 2.7 SE 11 15 6 8 1021.3 1021.3 0.0
08/07:00am 15.5 13.9 11.5 77 2.2 SE 11 13 6 7 1021.1 1021.1 0.0
08/06:30am 15.4 14.1 11.2 76 2.2 SE 9 13 5 7 1020.6 1020.6 0.0
08/06:00am 16.1 14.1 11.5 74 2.5 SE 13 17 7 9 1020.3 1020.3 0.0
08/05:30am 16.6 14.7 11.7 73 2.7 SE 13 19 7 10 1020.2 1020.2 0.0
08/05:00am 16.2 14.6 11.6 74 2.5 SE 11 19 6 10 1019.9 1019.9 0.0
08/04:30am 16.8 14.1 11.7 72 2.8 SE 17 22 9 12 1019.8 1019.8 0.0
08/04:00am 17.0 14.7 11.9 72 2.8 SE 15 22 8 12 1019.8 1019.8 0.0
08/03:30am 16.8 14.5 11.9 73 2.7 SE 15 19 8 10 1019.7 1019.7 0.0
08/03:00am 16.7 15.2 12.0 74 2.6 SE 11 15 6 8 1019.7 1019.7 0.0
08/02:30am 16.6 15.5 12.0 74 2.5 SE 9 13 5 7 1019.7 1019.7 0.0
08/02:00am 16.7 15.6 11.8 73 2.7 SE 9 13 5 7 1019.9 1019.9 0.0
08/01:30am 17.1 15.7 12.2 73 2.7 SE 11 13 6 7 1020.1 1020.1 0.0
08/01:00am 17.6 16.3 12.5 72 2.8 SE 11 15 6 8 1020.1 1020.1 0.0
08/12:30am 17.9 16.2 12.4 70 3.0 SSE 13 19 7 10 1019.9 1019.9 0.0
08/12:00am 17.7 17.8 11.5 67 3.4 SSE 2 7 1 4 1019.8 1019.8 0.0
 
Date/Time
CDT
Tmp

°C
App
Tmp
°C
Dew
Point
°C
Rel
Hum
%
Delta-T

°C
Wind Press
QNH
hPa
Press
MSL
hPa
Rain
since
9 am
mm
Dir
 
Spd
km/h
Gust
km/h
Spd
kts
Gust
kts
07/11:30pm 18.8 17.7 12.1 65 3.7 ESE 9 17 5 9 1019.7 1019.7 0.0
07/11:00pm 19.3 18.1 12.8 66 3.7 SSE 11 19 6 10 1019.7 1019.7 0.0
07/10:30pm 19.6 17.6 12.8 65 3.8 SE 15 20 8 11 1019.4 1019.4 0.0
07/10:00pm 20.9 18.4 13.4 62 4.3 SE 19 24 10 13 1019.0 1019.0 0.0
07/09:30pm 22.1 21.1 14.5 62 4.5 SE 13 17 7 9 1018.4 1018.4 0.0
07/09:00pm 23.9 22.4 15.4 59 5.1 SE 17 20 9 11 1017.9 1017.9 0.0
07/08:30pm 25.4 24.2 16.0 56 5.7 SE 17 20 9 11 1017.3 1017.3 0.0
07/08:00pm 26.4 26.0 16.3 53 6.2 WSW 13 17 7 9 1016.9 1016.9 0.0
07/07:30pm 27.3 26.5 16.0 50 6.9 SW 15 20 8 11 1016.6 1016.6 0.0
07/07:00pm 27.3 25.4 15.7 49 7.1 WSW 20 26 11 14 1016.4 1016.4 0.0
07/06:30pm 28.1 25.7 15.4 46 7.8 WSW 22 30 12 16 1016.1 1016.1 0.0
07/06:00pm 28.7 26.0 15.6 45 8.0 SW 24 30 13 16 1016.0 1016.0 0.0
07/05:30pm 29.2 26.5 15.7 44 8.3 SW 24 30 13 16 1015.9 1015.9 0.0
07/05:00pm 29.9 26.8 14.4 38 9.4 SW 24 32 13 17 1015.8 1015.8 0.0
07/04:30pm 30.0 27.6 15.3 41 9.0 SW 22 28 12 15 1015.9 1015.9 0.0
07/04:00pm 30.2 27.5 15.5 41 9.1 WSW 24 30 13 16 1016.0 1016.0 0.0
07/03:30pm 30.4 28.1 15.7 41 9.1 SW 22 30 12 16 1016.1 1016.1 0.0

Latest Capital City Observations: Canberra | Sydney | Melbourne | Brisbane | Adelaide | Perth | Hobart | Darwin

Other Formats:

Comma delimited format used in spreadsheet applications
http://www.bom.gov.au/fwo/IDS60901/IDS60901.95677.axf

JavaScript Object Notation format (JSON) in row-major order
http://www.bom.gov.au/fwo/IDS60901/IDS60901.95677.json